Time;durP1;ratioP1;P1;durP2;ratioP2;P2;SDS_P1;SDS_P2;PMS_P1;PMS_P2;Temp;Humidity;BMP_temperature;BMP_pressure;BME280_temperature;BME280_humidity;BME280_pressure;Samples;Min_cycle;Max_cycle;Signal;HPM_P1;HPM_P2
2022/12/08 00:02:18;;;;;;;36.75;21.92;;;;;;;3.39;100.00;100480.28;4981025;28;20051;-81
2022/12/08 00:10:21;;;;;;;39.45;23.10;;;;;;;3.41;100.00;100481.00;4927647;29;20052;-82
2022/12/08 00:12:47;;;;;;;36.60;21.33;;;;;;;3.37;100.00;100471.81;4967157;28;20137;-81
2022/12/08 00:15:15;;;;;;;35.13;21.48;;;;;;;3.38;100.00;100474.28;4978685;28;20133;-82
2022/12/08 00:17:42;;;;;;;36.70;22.20;;;;;;;3.42;100.00;100467.97;4979745;28;20150;-82
2022/12/08 00:20:09;;;;;;;36.80;22.02;;;;;;;3.44;100.00;100468.69;4977831;28;20066;-81
2022/12/08 00:22:36;;;;;;;43.95;22.90;;;;;;;3.42;100.00;100459.38;4979497;28;20121;-81
2022/12/08 00:25:03;;;;;;;35.92;21.33;;;;;;;3.40;100.00;100456.91;4979185;28;20059;-81
2022/12/08 00:27:29;;;;;;;40.45;22.90;;;;;;;3.40;100.00;100456.91;4978724;28;20130;-83
2022/12/08 00:29:56;;;;;;;39.08;21.77;;;;;;;3.45;100.00;100459.97;4979694;28;20082;-83
2022/12/08 00:32:24;;;;;;;38.03;21.88;;;;;;;3.46;100.00;100451.28;4979572;28;20422;-82
2022/12/08 00:34:50;;;;;;;39.83;21.95;;;;;;;3.48;100.00;100452.00;4987561;28;20074;-80
2022/12/08 00:37:17;;;;;;;37.92;22.80;;;;;;;3.52;100.00;100450.00;4987081;28;20473;-83
2022/12/08 00:39:44;;;;;;;33.47;20.98;;;;;;;3.48;100.00;100444.22;4980057;28;20110;-84
2022/12/08 00:42:13;;;;;;;41.17;23.55;;;;;;;3.42;100.00;100449.84;4981259;28;20111;-83
2022/12/08 00:44:40;;;;;;;41.33;23.50;;;;;;;3.42;100.00;100433.50;4980857;28;20133;-82
2022/12/08 00:47:07;;;;;;;38.33;22.42;;;;;;;3.41;100.00;100440.44;4980511;28;20085;-85
2022/12/08 00:49:35;;;;;;;40.58;22.85;;;;;;;3.40;100.00;100438.81;4981167;28;20053;-83
2022/12/08 00:52:02;;;;;;;41.30;22.70;;;;;;;3.41;100.00;100437.03;4981440;28;20070;-83
2022/12/08 00:54:28;;;;;;;42.17;21.75;;;;;;;3.33;100.00;100429.84;4981037;28;20502;-82
2022/12/08 00:56:55;;;;;;;35.72;22.35;;;;;;;3.36;100.00;100437.38;4985803;28;20050;-81
2022/12/08 00:59:22;;;;;;;42.03;22.50;;;;;;;3.39;100.00;100438.91;4986773;28;20090;-82
2022/12/08 01:01:49;;;;;;;38.95;22.38;;;;;;;3.31;100.00;100416.19;4987822;28;20470;-83
2022/12/08 01:04:17;;;;;;;38.05;22.45;;;;;;;3.30;100.00;100419.75;4988803;28;20047;-82
2022/12/08 01:06:45;;;;;;;36.33;22.80;;;;;;;3.29;100.00;100418.13;4989796;28;20517;-82
2022/12/08 01:09:16;;;;;;;41.47;24.73;;;;;;;3.16;100.00;100391.50;5017186;23;20074;-78
2022/12/08 01:11:44;;;;;;;41.30;23.02;;;;;;;3.16;100.00;100388.94;4995226;28;20125;-78
2022/12/08 01:14:14;;;;;;;40.67;23.73;;;;;;;3.26;100.00;100418.34;4995111;28;20066;-78
2022/12/08 01:16:43;;;;;;;38.38;23.08;;;;;;;3.22;100.00;100409.97;4995918;28;20061;-77
2022/12/08 01:19:16;;;;;;;42.30;24.67;;;;;;;3.34;100.00;100427.16;4995123;28;20066;-78
2022/12/08 01:21:45;;;;;;;39.92;24.73;;;;;;;3.36;100.00;100424.44;4995384;28;20130;-76
2022/12/08 01:24:12;;;;;;;39.15;25.27;;;;;;;3.43;100.00;100425.63;4995115;28;20043;-79
2022/12/08 01:26:39;;;;;;;46.47;25.52;;;;;;;3.40;100.00;100432.81;4994431;28;20058;-77
2022/12/08 01:29:06;;;;;;;42.75;25.83;;;;;;;3.47;100.00;100434.81;4994469;28;20082;-79
2022/12/08 01:31:32;;;;;;;40.92;25.42;;;;;;;3.38;100.00;100427.75;5006596;28;20096;-79
2022/12/08 01:33:59;;;;;;;42.25;25.95;;;;;;;3.39;100.00;100431.97;5015166;28;20512;-79
2022/12/08 01:36:28;;;;;;;42.15;24.75;;;;;;;3.42;100.00;100426.56;5014161;28;20133;-79
2022/12/08 01:38:58;;;;;;;40.88;24.80;;;;;;;3.46;100.00;100430.59;5013423;28;20485;-78
2022/12/08 01:41:27;;;;;;;38.58;24.67;;;;;;;3.44;100.00;100427.28;5014090;28;20153;-79
2022/12/08 01:44:01;;;;;;;39.72;23.58;;;;;;;3.51;100.00;100436.25;5012168;28;20654;-78
2022/12/08 01:46:29;;;;;;;37.80;24.92;;;;;;;3.54;100.00;100420.47;5007984;28;20057;-78
2022/12/08 01:49:02;;;;;;;37.85;21.83;;;;;;;3.51;100.00;100428.47;5012809;28;20050;-79
2022/12/08 01:51:33;;;;;;;35.80;21.52;;;;;;;3.58;100.00;100421.91;5013575;28;20141;-78
2022/12/08 01:54:03;;;;;;;36.38;21.98;;;;;;;3.50;100.00;100416.47;5013380;28;20054;-78
2022/12/08 01:56:37;;;;;;;37.47;22.75;;;;;;;3.54;100.00;100412.72;5012689;28;20057;-78
2022/12/08 01:59:04;;;;;;;34.45;20.63;;;;;;;3.55;100.00;100410.97;5005480;28;20133;-78
2022/12/08 02:01:30;;;;;;;33.65;19.95;;;;;;;3.56;100.00;100415.19;4993865;28;20141;-76
2022/12/08 02:03:59;;;;;;;29.45;19.38;;;;;;;3.59;100.00;100404.63;4993837;28;20146;-77
2022/12/08 02:06:29;;;;;;;29.83;18.95;;;;;;;3.57;100.00;100409.91;5008111;28;20233;-77
2022/12/08 02:08:56;;;;;;;27.90;18.73;;;;;;;3.58;100.00;100401.22;5012496;28;20133;-79
2022/12/08 02:11:24;;;;;;;34.20;19.45;;;;;;;3.56;100.00;100400.50;5012911;28;20484;-77
2022/12/08 02:13:53;;;;;;;30.40;18.10;;;;;;;3.53;100.00;100392.16;5013990;28;20144;-77
2022/12/08 02:16:33;;;;;;;26.92;16.55;;;;;;;3.55;100.00;100392.84;5005480;28;20462;-78
2022/12/08 02:19:29;;;;;;;29.88;16.08;;;;;;;3.61;100.00;100400.97;5007887;28;20046;-77
2022/12/08 02:22:00;;;;;;;26.70;15.90;;;;;;;3.61;100.00;100395.81;5013120;28;20445;-79
2022/12/08 02:24:36;;;;;;;25.40;15.45;;;;;;;3.62;100.00;100394.84;5012916;28;20046;-79
2022/12/08 02:27:28;;;;;;;30.08;16.10;;;;;;;3.59;100.00;100382.16;5013149;28;20515;-78
2022/12/08 02:30:13;;;;;;;27.13;16.40;;;;;;;3.58;100.00;100372.75;4992577;28;20056;-78
2022/12/08 02:33:23;;;;;;;29.13;16.48;;;;;;;3.57;100.00;100370.28;4993751;28;20129;-78
2022/12/08 02:35:57;;;;;;;26.85;16.67;;;;;;;3.58;100.00;100371.91;4992931;28;20058;-78
2022/12/08 02:38:36;;;;;;;29.83;18.67;;;;;;;3.52;100.00;100368.03;4992757;28;20050;-79
2022/12/08 02:41:11;;;;;;;32.45;19.02;;;;;;;3.51;100.00;100371.56;5005118;28;20144;-77
2022/12/08 02:43:45;;;;;;;34.15;20.88;;;;;;;3.56;100.00;100374.63;5013069;28;20104;-79
2022/12/08 02:46:16;;;;;;;32.80;21.25;;;;;;;3.53;100.00;100359.34;5003349;28;20078;-78
2022/12/08 02:48:43;;;;;;;27.63;18.35;;;;;;;3.58;100.00;100357.22;4992971;28;20097;-78
2022/12/08 02:51:11;;;;;;;26.17;16.08;;;;;;;3.58;100.00;100346.88;4993215;28;20486;-80
2022/12/08 02:53:38;;;;;;;23.50;14.57;;;;;;;3.53;100.00;100343.00;4992980;28;20145;-79
2022/12/08 02:56:18;;;;;;;24.88;14.57;;;;;;;3.57;100.00;100331.47;4993109;28;20134;-78
2022/12/08 02:59:10;;;;;;;19.58;13.77;;;;;;;3.58;100.00;100331.34;4992385;28;20089;-77
2022/12/08 03:01:56;;;;;;;23.20;14.93;;;;;;;3.62;100.00;100335.34;5004576;28;20132;-78
2022/12/08 03:04:34;;;;;;;21.80;13.23;;;;;;;3.59;100.00;100325.25;5011906;28;20060;-79
2022/12/08 03:07:08;;;;;;;22.63;13.48;;;;;;;3.54;100.00;100317.00;5012936;28;20129;-79
2022/12/08 03:09:39;;;;;;;19.95;12.75;;;;;;;3.59;100.00;100317.47;5005658;28;20046;-78
2022/12/08 03:12:14;;;;;;;22.75;14.50;;;;;;;3.56;100.00;100309.94;4992729;28;20050;-78
2022/12/08 03:14:46;;;;;;;19.70;13.68;;;;;;;3.57;100.00;100305.59;4992337;28;20501;-78
2022/12/08 03:17:15;;;;;;;19.98;13.43;;;;;;;3.55;100.00;100295.38;5009591;28;20137;-78
2022/12/08 03:19:47;;;;;;;20.10;12.65;;;;;;;3.43;100.00;100264.44;5012451;28;20104;-77
2022/12/08 03:22:22;;;;;;;19.23;13.33;;;;;;;3.55;100.00;100295.38;5002115;28;20053;-79
2022/12/08 03:24:49;;;;;;;18.33;13.18;;;;;;;3.57;100.00;100293.47;4995168;28;20760;-78
2022/12/08 03:27:19;;;;;;;21.05;13.35;;;;;;;3.54;100.00;100287.72;4997251;28;20057;-79
2022/12/08 03:29:47;;;;;;;20.67;13.57;;;;;;;3.53;100.00;100292.06;4995410;28;20082;-80
2022/12/08 03:32:22;;;;;;;21.75;14.27;;;;;;;3.51;100.00;100293.97;5013234;28;20069;-79
2022/12/08 03:34:50;;;;;;;24.08;14.05;;;;;;;3.59;100.00;100293.38;5013667;28;20054;-78
2022/12/08 03:37:18;;;;;;;24.52;15.40;;;;;;;3.56;100.00;100291.84;5011278;28;20049;-77
2022/12/08 03:39:45;;;;;;;25.63;14.75;;;;;;;3.54;100.00;100291.13;4997535;28;20089;-76
2022/12/08 03:42:11;;;;;;;24.08;13.55;;;;;;;3.58;100.00;100291.72;4991977;28;20054;-77
2022/12/08 03:44:38;;;;;;;22.20;14.68;;;;;;;3.59;100.00;100290.78;4994511;28;20098;-79
2022/12/08 03:47:05;;;;;;;24.83;16.50;;;;;;;3.51;100.00;100275.84;5010838;28;20483;-79
2022/12/08 03:49:31;;;;;;;24.95;15.35;;;;;;;3.50;100.00;100287.13;5014944;28;20156;-79
2022/12/08 03:51:58;;;;;;;27.00;15.85;;;;;;;3.55;100.00;100279.84;5016181;28;20200;-79
2022/12/08 03:54:26;;;;;;;25.40;15.68;;;;;;;3.56;100.00;100275.50;5014182;28;20145;-77
2022/12/08 03:56:52;;;;;;;24.73;16.50;;;;;;;3.61;100.00;100273.38;5013149;28;20531;-78
2022/12/08 03:59:19;;;;;;;26.08;17.10;;;;;;;3.53;100.00;100266.22;5013293;28;20073;-77
2022/12/08 04:01:46;;;;;;;29.13;17.80;;;;;;;3.61;100.00;100274.19;5000903;28;20046;-79
2022/12/08 04:04:12;;;;;;;28.85;17.27;;;;;;;3.61;100.00;100274.19;4996689;28;20078;-78
2022/12/08 04:06:39;;;;;;;31.08;18.80;;;;;;;3.61;100.00;100268.19;4994580;28;20141;-78
2022/12/08 04:09:06;;;;;;;31.48;18.80;;;;;;;3.61;100.00;100270.78;4993374;28;20050;-78
2022/12/08 04:11:34;;;;;;;26.73;17.80;;;;;;;3.53;100.00;100266.22;5012672;28;20070;-77
2022/12/08 04:14:00;;;;;;;26.98;17.75;;;;;;;3.58;100.00;100269.25;5012477;28;20795;-77
2022/12/08 04:16:27;;;;;;;26.15;18.00;;;;;;;3.56;100.00;100271.13;5011027;28;20053;-78
2022/12/08 04:18:55;;;;;;;32.35;19.10;;;;;;;3.51;100.00;100262.09;5010736;28;20594;-78
2022/12/08 04:21:23;;;;;;;28.83;17.75;;;;;;;3.49;100.00;100269.97;5010755;28;20064;-78
2022/12/08 04:23:50;;;;;;;28.27;17.63;;;;;;;3.41;100.00;100261.97;4991562;28;20081;-78
2022/12/08 04:26:17;;;;;;;33.47;17.67;;;;;;;3.39;100.00;100260.44;4995365;28;20085;-80
2022/12/08 04:28:48;;;;;;;29.20;17.83;;;;;;;3.40;100.00;100262.09;5016229;28;20132;-80
2022/12/08 04:31:15;;;;;;;26.88;17.17;;;;;;;3.40;100.00;100260.34;5007698;28;20042;-81
2022/12/08 04:33:41;;;;;;;27.77;17.77;;;;;;;3.36;100.00;100258.94;4999453;28;20061;-80
2022/12/08 04:36:09;;;;;;;30.33;18.33;;;;;;;3.40;100.00;100251.75;5000779;28;20078;-81
2022/12/08 04:38:36;;;;;;;29.55;18.25;;;;;;;3.38;100.00;100244.13;4996091;28;20046;-79
2022/12/08 04:41:02;;;;;;;26.80;17.67;;;;;;;3.36;100.00;100251.16;4996722;28;20416;-78
2022/12/08 04:43:30;;;;;;;26.95;16.67;;;;;;;3.34;100.00;100250.47;5006095;28;20081;-79
2022/12/08 04:45:58;;;;;;;28.80;16.98;;;;;;;3.36;100.00;100245.16;5008467;28;20125;-79
2022/12/08 04:48:24;;;;;;;33.55;17.73;;;;;;;3.38;100.00;100241.53;4995938;28;20085;-79
2022/12/08 04:50:51;;;;;;;33.65;18.70;;;;;;;3.38;100.00;100246.69;5015993;28;20125;-78
2022/12/08 04:53:18;;;;;;;37.42;19.45;;;;;;;3.41;100.00;100251.63;5015947;28;20052;-78
2022/12/08 04:55:48;;;;;;;34.20;20.08;;;;;;;3.42;100.00;100248.09;5007276;28;20488;-78
2022/12/08 04:58:17;;;;;;;35.28;19.02;;;;;;;3.41;100.00;100243.88;4995318;28;20061;-78
2022/12/08 05:00:44;;;;;;;39.35;19.63;;;;;;;3.35;100.00;100244.34;4999932;28;20050;-79
2022/12/08 05:03:12;;;;;;;37.75;21.30;;;;;;;3.41;100.00;100249.03;5008166;28;20130;-79
2022/12/08 05:05:39;;;;;;;38.58;20.85;;;;;;;3.41;100.00;100246.47;4999870;28;20082;-80
2022/12/08 05:08:06;;;;;;;41.30;21.13;;;;;;;3.40;100.00;100241.41;5008844;28;20061;-80
2022/12/08 05:10:40;;;;;;;38.85;22.33;;;;;;;3.37;100.00;100250.22;5014248;28;20046;-80
2022/12/08 05:13:09;;;;;;;39.88;21.00;;;;;;;3.40;100.00;100241.41;5018780;28;20054;-78
2022/12/08 05:15:36;;;;;;;40.47;23.63;;;;;;;3.40;100.00;100244.00;5013980;28;20133;-78
2022/12/08 05:18:05;;;;;;;38.72;22.60;;;;;;;3.43;100.00;100234.22;5013618;28;20071;-77
2022/12/08 05:20:33;;;;;;;39.00;22.85;;;;;;;3.41;100.00;100236.13;5014411;28;20081;-79
2022/12/08 05:22:59;;;;;;;46.47;24.27;;;;;;;3.44;100.00;100228.13;5015130;28;20472;-79
2022/12/08 05:25:26;;;;;;;44.03;24.80;;;;;;;3.43;100.00;100239.41;5015518;28;20089;-79
2022/12/08 05:27:53;;;;;;;45.53;24.75;;;;;;;3.44;100.00;100228.13;5013764;28;20105;-79
2022/12/08 05:30:19;;;;;;;52.38;25.40;;;;;;;3.43;100.00;100223.88;5014408;28;20089;-80
2022/12/08 05:32:46;;;;;;;44.90;24.52;;;;;;;3.46;100.00;100228.00;4995154;28;20062;-79
2022/12/08 05:35:13;;;;;;;47.38;24.50;;;;;;;3.51;100.00;100221.53;4994810;28;20736;-78
2022/12/08 05:37:41;;;;;;;54.38;25.13;;;;;;;3.48;100.00;100226.94;4994722;28;20461;-78
2022/12/08 05:40:08;;;;;;;45.63;25.27;;;;;;;3.50;100.00;100217.28;5010467;28;20097;-77
2022/12/08 05:42:35;;;;;;;49.97;25.77;;;;;;;3.49;100.00;100215.66;5012995;28;20050;-78
2022/12/08 05:45:01;;;;;;;45.65;24.80;;;;;;;3.50;100.00;100208.72;5012395;28;20152;-77
2022/12/08 05:47:28;;;;;;;41.38;24.17;;;;;;;3.48;100.00;100206.25;4993866;28;20133;-77
2022/12/08 05:49:54;;;;;;;43.47;24.25;;;;;;;3.48;100.00;100195.91;4995066;28;20109;-78
2022/12/08 05:52:21;;;;;;;47.63;23.77;;;;;;;3.46;100.00;100208.13;5010507;28;20046;-78
2022/12/08 05:54:49;;;;;;;47.72;23.83;;;;;;;3.48;100.00;100201.06;5013204;28;20050;-79
2022/12/08 05:57:16;;;;;;;40.72;21.92;;;;;;;3.45;100.00;100196.13;5013427;28;20592;-78
2022/12/08 05:59:43;;;;;;;46.92;22.95;;;;;;;3.47;100.00;100196.84;5013099;28;20146;-77
2022/12/08 06:02:10;;;;;;;41.85;23.23;;;;;;;3.45;100.00;100195.31;4996056;28;20130;-78
2022/12/08 06:04:37;;;;;;;41.13;21.23;;;;;;;3.48;100.00;100195.91;4993684;28;20050;-80
2022/12/08 06:07:03;;;;;;;38.30;21.77;;;;;;;3.48;100.00;100188.13;5008958;28;20073;-79
2022/12/08 06:09:30;;;;;;;35.35;21.00;;;;;;;3.49;100.00;100192.38;5019683;28;20144;-78
2022/12/08 06:11:58;;;;;;;38.70;21.92;;;;;;;3.46;100.00;100197.78;5031652;28;20147;-79
2022/12/08 06:14:24;;;;;;;38.28;21.65;;;;;;;3.44;100.00;100196.25;5013732;28;20058;-78
2022/12/08 06:16:51;;;;;;;40.00;22.02;;;;;;;3.37;100.00;100192.50;5012000;28;20545;-78
2022/12/08 06:19:18;;;;;;;42.85;22.10;;;;;;;3.37;100.00;100197.69;5018434;28;20163;-78
2022/12/08 06:21:44;;;;;;;40.47;21.15;;;;;;;3.36;100.00;100191.69;5027656;28;20476;-79
2022/12/08 06:24:11;;;;;;;41.22;21.20;;;;;;;3.34;100.00;100186.63;5032261;28;20050;-77
2022/12/08 06:26:40;;;;;;;37.58;20.60;;;;;;;3.38;100.00;100191.56;5023784;28;20546;-79
2022/12/08 06:29:08;;;;;;;41.80;20.13;;;;;;;3.38;100.00;100200.16;5013121;28;20077;-79
2022/12/08 06:31:34;;;;;;;38.90;21.42;;;;;;;3.38;100.00;100194.97;5008921;28;20129;-79
2022/12/08 06:34:01;;;;;;;39.88;23.10;;;;;;;3.37;100.00;100193.31;4994840;28;20484;-79
2022/12/08 06:36:28;;;;;;;40.45;22.20;;;;;;;3.36;100.00;100199.44;4995271;28;20046;-79
2022/12/08 06:38:55;;;;;;;40.45;22.17;;;;;;;3.38;100.00;100188.97;5002736;28;20332;-79
2022/12/08 06:41:22;;;;;;;38.83;20.75;;;;;;;3.38;100.00;100194.16;5010573;28;20165;-80
2022/12/08 06:43:48;;;;;;;37.00;20.02;;;;;;;3.35;100.00;100184.88;5004895;28;20237;-79
2022/12/08 06:46:19;;;;;;;38.90;21.48;;;;;;;3.34;100.00;100189.22;4996016;28;20134;-79
2022/12/08 06:48:46;;;;;;;38.58;22.50;;;;;;;3.35;100.00;100195.22;4995474;28;20489;-80
2022/12/08 06:51:14;;;;;;;40.97;20.45;;;;;;;3.33;100.00;100195.34;5004567;28;20061;-78
2022/12/08 06:53:42;;;;;;;44.80;21.20;;;;;;;3.32;100.00;100195.44;5012902;28;20140;-79
2022/12/08 06:56:09;;;;;;;42.50;22.13;;;;;;;3.34;100.00;100193.56;5014934;28;20467;-79
2022/12/08 06:58:38;;;;;;;37.58;21.27;;;;;;;3.34;100.00;100199.56;5013212;28;20133;-80
2022/12/08 07:01:07;;;;;;;41.85;21.70;;;;;;;3.37;100.00;100200.25;5011602;28;20108;-79
2022/12/08 07:03:35;;;;;;;42.15;20.80;;;;;;;3.39;100.00;100200.97;5013335;28;20136;-78
2022/12/08 07:06:02;;;;;;;37.67;20.05;;;;;;;3.38;100.00;100194.97;5003269;28;20085;-80
2022/12/08 07:08:28;;;;;;;42.90;19.98;;;;;;;3.34;100.00;100207.31;5006650;28;20058;-79
2022/12/08 07:13:22;;;;;;;38.33;19.98;;;;;;;3.29;100.00;100217.22;5015983;28;20136;-83
2022/12/08 07:15:49;;;;;;;40.35;21.05;;;;;;;3.26;100.00;100206.31;5014071;28;20133;-82
2022/12/08 07:18:16;;;;;;;35.38;21.33;;;;;;;3.30;100.00;100213.69;5017717;28;20077;-79
2022/12/08 07:20:44;;;;;;;36.08;20.08;;;;;;;3.33;100.00;100208.25;5008634;28;20074;-81
2022/12/08 07:23:10;;;;;;;35.78;20.88;;;;;;;3.29;100.00;100217.22;4998164;28;20066;-80
2022/12/08 07:25:37;;;;;;;34.30;20.13;;;;;;;3.29;100.00;100217.22;4999103;28;20112;-80
2022/12/08 07:28:08;;;;;;;37.45;20.58;;;;;;;3.27;100.00;100215.69;4999414;28;20078;-80
2022/12/08 07:30:35;;;;;;;37.65;20.45;;;;;;;3.28;100.00;100215.59;4999218;28;20077;-80
2022/12/08 07:33:03;;;;;;;36.05;20.67;;;;;;;3.28;100.00;100209.59;4998383;28;20065;-80
2022/12/08 07:35:30;;;;;;;32.60;17.92;;;;;;;3.26;100.00;100221.81;4999676;28;20046;-81
2022/12/08 07:37:58;;;;;;;34.72;19.20;;;;;;;3.22;100.00;100215.22;5000694;28;20072;-81
2022/12/08 07:40:24;;;;;;;34.47;17.58;;;;;;;3.25;100.00;100217.59;4998811;28;20042;-82
2022/12/08 07:42:53;;;;;;;28.35;16.83;;;;;;;3.17;100.00;100217.34;5001595;28;20070;-82
2022/12/08 07:45:20;;;;;;;28.00;18.10;;;;;;;3.05;100.00;100229.47;5000133;28;20042;-81
2022/12/08 07:47:47;;;;;;;33.22;17.83;;;;;;;3.08;100.00;100223.22;5000783;28;20104;-82
2022/12/08 07:50:13;;;;;;;34.88;18.77;;;;;;;3.07;100.00;100226.75;4998331;28;20078;-81
2022/12/08 07:52:40;;;;;;;34.13;18.88;;;;;;;3.04;100.00;100226.97;4998330;28;20070;-81
2022/12/08 07:55:09;;;;;;;33.53;18.55;;;;;;;3.03;100.00;100222.75;4997855;28;20069;-80
2022/12/08 07:57:36;;;;;;;36.00;19.50;;;;;;;3.02;100.00;100215.94;4997718;28;20556;-79
2022/12/08 08:00:03;;;;;;;38.35;20.90;;;;;;;2.98;100.00;100223.94;4998089;28;20223;-81
2022/12/08 08:02:30;;;;;;;38.58;20.85;;;;;;;3.03;100.00;100225.34;4997616;28;20058;-83
2022/12/08 08:04:57;;;;;;;39.92;20.48;;;;;;;2.96;100.00;100225.81;4999260;28;20077;-82
2022/12/08 08:07:23;;;;;;;34.78;20.40;;;;;;;3.02;100.00;100226.28;4999515;28;20062;-80
2022/12/08 08:09:50;;;;;;;37.63;20.75;;;;;;;3.00;100.00;100237.56;5001198;28;20046;-82
2022/12/08 08:12:18;;;;;;;39.90;21.48;;;;;;;3.03;100.00;100223.56;5003085;28;20049;-80
2022/12/08 08:14:45;;;;;;;35.53;21.08;;;;;;;3.02;100.00;100224.50;5004123;28;20218;-81
2022/12/08 08:17:11;;;;;;;40.60;23.02;;;;;;;2.99;100.00;100214.41;5003531;28;20555;-80
2022/12/08 08:19:38;;;;;;;39.78;21.65;;;;;;;2.97;100.00;100219.69;5002495;28;20077;-80
2022/12/08 08:22:04;;;;;;;39.65;20.35;;;;;;;3.03;100.00;100225.34;5002932;28;20468;-81
2022/12/08 08:24:31;;;;;;;37.05;20.50;;;;;;;3.04;100.00;100221.81;5002370;28;20125;-81
2022/12/08 08:26:58;;;;;;;40.13;21.77;;;;;;;3.06;100.00;100227.69;5002524;28;20054;-80
2022/12/08 08:29:26;;;;;;;37.80;21.08;;;;;;;3.04;100.00;100227.81;5001449;28;20078;-78
2022/12/08 08:31:52;;;;;;;35.90;20.48;;;;;;;3.12;100.00;100215.13;5004800;28;20130;-80
2022/12/08 08:34:19;;;;;;;33.80;20.65;;;;;;;3.15;100.00;100214.06;5003028;28;20090;-79
2022/12/08 08:36:45;;;;;;;35.00;19.88;;;;;;;3.15;100.00;100219.22;5002672;28;20054;-81
2022/12/08 08:39:12;;;;;;;37.40;20.90;;;;;;;3.18;100.00;100214.66;5002336;28;20139;-80
2022/12/08 08:41:39;;;;;;;35.85;20.30;;;;;;;3.22;100.00;100217.81;5006063;28;20129;-85
2022/12/08 08:44:05;;;;;;;31.42;20.00;;;;;;;3.27;100.00;100224.28;5005001;28;20461;-82
2022/12/08 08:46:33;;;;;;;31.52;19.52;;;;;;;3.21;100.00;100226.53;5005138;28;20553;-81
2022/12/08 08:49:00;;;;;;;34.45;20.58;;;;;;;3.24;100.00;100229.69;5005155;28;20110;-80
2022/12/08 08:51:27;;;;;;;37.58;21.13;;;;;;;3.20;100.00;100220.53;5003779;28;20058;-79
2022/12/08 08:53:54;;;;;;;34.30;20.20;;;;;;;3.17;100.00;100217.34;5004215;28;20050;-81
2022/12/08 08:56:20;;;;;;;31.38;19.55;;;;;;;3.06;100.00;100215.59;5006264;28;20137;-81
2022/12/08 08:58:48;;;;;;;32.25;18.80;;;;;;;3.11;100.00;100226.41;5003477;28;20081;-82
2022/12/08 09:01:18;;;;;;;32.08;18.13;;;;;;;3.12;100.00;100222.06;5002704;28;20054;-81
2022/12/08 09:03:46;;;;;;;31.83;17.45;;;;;;;3.13;100.00;100216.75;5003244;28;20114;-81
2022/12/08 09:06:14;;;;;;;30.25;16.75;;;;;;;3.13;100.00;100213.34;5003850;28;20082;-81
2022/12/08 09:08:42;;;;;;;29.63;16.17;;;;;;;3.15;100.00;100219.22;5003450;28;20050;-82
2022/12/08 09:11:09;;;;;;;25.80;15.68;;;;;;;3.16;100.00;100216.53;5004716;28;20097;-81
2022/12/08 09:13:36;;;;;;;28.17;16.13;;;;;;;3.11;100.00;100208.31;5005366;28;20062;-83
2022/12/08 09:16:05;;;;;;;24.35;14.65;;;;;;;3.16;100.00;100210.53;5007975;28;20054;-82
2022/12/08 09:18:32;;;;;;;25.40;14.57;;;;;;;3.21;100.00;100206.66;5007779;28;20051;-83
2022/12/08 09:21:05;;;;;;;25.73;16.17;;;;;;;3.20;100.00;100211.94;5006314;28;20546;-82
2022/12/08 09:23:32;;;;;;;26.60;16.40;;;;;;;3.20;100.00;100206.78;5003810;28;20086;-82
2022/12/08 09:25:58;;;;;;;23.17;15.77;;;;;;;3.14;100.00;100213.25;5003857;28;20118;-83
2022/12/08 09:28:25;;;;;;;26.00;16.08;;;;;;;3.26;100.00;100207.13;5004588;28;20078;-83
2022/12/08 09:30:52;;;;;;;26.65;15.52;;;;;;;3.23;100.00;100209.13;5002667;28;20141;-83
2022/12/08 09:33:18;;;;;;;28.27;15.20;;;;;;;3.20;100.00;100214.53;5002381;28;20058;-83
2022/12/08 09:35:45;;;;;;;26.50;15.98;;;;;;;3.25;100.00;100215.00;5003246;28;20114;-82
2022/12/08 09:38:13;;;;;;;25.25;16.42;;;;;;;3.18;100.00;100199.13;5002280;28;20084;-82
2022/12/08 09:40:48;;;;;;;23.48;15.27;;;;;;;3.28;100.00;100199.25;5002597;28;20078;-80
2022/12/08 09:43:26;;;;;;;28.95;16.35;;;;;;;3.34;100.00;100198.75;5003051;28;20102;-81
2022/12/08 09:45:54;;;;;;;25.38;14.73;;;;;;;3.40;100.00;100202.63;5003291;28;20078;-81
2022/12/08 09:48:25;;;;;;;26.50;14.98;;;;;;;3.36;100.00;100204.63;5002673;28;20153;-83
2022/12/08 09:50:55;;;;;;;23.70;12.55;;;;;;;3.27;100.00;100201.00;5003010;28;20085;-83
2022/12/08 09:53:26;;;;;;;19.00;11.38;;;;;;;3.31;100.00;100202.38;5002759;28;20488;-81
2022/12/08 09:55:57;;;;;;;17.80;10.38;;;;;;;3.34;100.00;100196.16;5008151;28;20105;-79
2022/12/08 09:58:31;;;;;;;17.63;10.68;;;;;;;3.36;100.00;100196.84;5007439;28;20101;-79
2022/12/08 10:00:58;;;;;;;16.73;11.70;;;;;;;3.24;100.00;100193.50;5004331;28;20057;-80
2022/12/08 10:03:28;;;;;;;25.48;13.30;;;;;;;3.22;100.00;100189.38;5003065;28;20058;-79
2022/12/08 10:06:03;;;;;;;23.08;14.45;;;;;;;3.22;100.00;100191.97;5002243;28;20050;-80
2022/12/08 10:08:41;;;;;;;22.95;14.65;;;;;;;3.24;100.00;100197.84;5003154;28;20110;-83
2022/12/08 10:11:16;;;;;;;22.85;14.52;;;;;;;3.25;100.00;100187.38;4998903;28;20054;-80
2022/12/08 10:13:54;;;;;;;25.05;14.90;;;;;;;3.35;100.00;100190.03;5008329;28;20043;-80
2022/12/08 10:16:26;;;;;;;23.45;14.48;;;;;;;3.37;100.00;100182.97;4999804;28;20110;-80
2022/12/08 10:19:00;;;;;;;24.87;15.20;;;;;;;3.42;100.00;100186.03;4985941;28;20082;-81
2022/12/08 10:21:30;;;;;;;22.67;14.90;;;;;;;3.40;100.00;100177.56;4987025;28;20047;-81
2022/12/08 10:24:03;;;;;;;24.48;15.18;;;;;;;3.49;100.00;100186.38;4985796;28;20043;-81
2022/12/08 10:26:31;;;;;;;22.95;14.85;;;;;;;3.44;100.00;100176.38;4985942;28;20070;-83
2022/12/08 10:29:01;;;;;;;30.90;16.55;;;;;;;3.50;100.00;100178.50;4992980;28;20050;-80
2022/12/08 10:31:30;;;;;;;26.35;16.00;;;;;;;3.49;100.00;100163.91;5002156;28;20054;-80
2022/12/08 10:33:58;;;;;;;24.65;14.82;;;;;;;3.60;100.00;100171.66;5002968;28;20046;-83
2022/12/08 10:36:44;;;;;;;29.75;16.00;;;;;;;3.57;100.00;100169.31;5004013;28;20054;-81
2022/12/08 10:39:29;;;;;;;28.05;15.88;;;;;;;3.54;100.00;100174.72;5000109;28;20089;-80
2022/12/08 10:42:01;;;;;;;20.55;14.32;;;;;;;3.48;100.00;100170.03;5001388;28;20402;-79
2022/12/08 10:44:28;;;;;;;21.02;12.88;;;;;;;3.41;100.00;100163.69;5004008;28;20046;-82
2022/12/08 10:46:55;;;;;;;25.48;11.73;;;;;;;3.36;100.00;100158.06;5002878;28;20050;-80
2022/12/08 10:49:27;;;;;;;18.05;11.30;;;;;;;3.38;100.00;100157.94;5001502;28;20078;-82
2022/12/08 10:51:53;;;;;;;26.92;12.23;;;;;;;3.32;100.00;100156.66;5002048;28;20050;-80
2022/12/08 10:54:28;;;;;;;21.23;12.65;;;;;;;3.39;100.00;100154.41;5000325;28;20058;-81
2022/12/08 10:56:56;;;;;;;22.23;12.18;;;;;;;3.35;100.00;100148.66;5002049;28;20172;-80
2022/12/08 10:59:24;;;;;;;21.23;12.10;;;;;;;3.41;100.00;100150.75;5000219;28;20485;-81
2022/12/08 11:01:52;;;;;;;24.98;12.95;;;;;;;3.42;100.00;100146.41;5001379;28;20054;-81
2022/12/08 11:04:21;;;;;;;21.50;11.32;;;;;;;3.49;100.00;100145.81;5001050;28;20088;-80
2022/12/08 11:06:49;;;;;;;21.55;11.68;;;;;;;3.40;100.00;100146.53;5000248;28;20466;-79
2022/12/08 11:09:38;;;;;;;18.50;11.57;;;;;;;3.51;100.00;100141.34;5001108;28;20062;-79
2022/12/08 11:12:14;;;;;;;17.73;10.88;;;;;;;3.53;100.00;100131.69;4999314;28;20058;-81
2022/12/08 11:14:49;;;;;;;17.83;10.95;;;;;;;3.52;100.00;100132.63;4999974;28;20428;-80
2022/12/08 11:17:18;;;;;;;20.42;11.70;;;;;;;3.50;100.00;100131.94;5000536;28;20126;-81
2022/12/08 11:19:46;;;;;;;21.73;12.43;;;;;;;3.51;100.00;100125.00;4999873;28;20160;-79
2022/12/08 11:22:25;;;;;;;23.27;13.05;;;;;;;3.50;100.00;100121.59;5000101;28;20078;-80
2022/12/08 11:24:58;;;;;;;21.55;12.25;;;;;;;3.50;100.00;100120.75;5001564;28;20149;-81
2022/12/08 11:27:26;;;;;;;19.45;11.13;;;;;;;3.49;100.00;100117.34;4998149;28;20054;-79